Time;durP1;ratioP1;P1;durP2;ratioP2;P2;SDS_P1;SDS_P2;PMS_P1;PMS_P2;Temp;Humidity;BMP_temperature;BMP_pressure;BME280_temperature;BME280_humidity;BME280_pressure;Samples;Min_cycle;Max_cycle;Signal;HPM_P1;HPM_P2
2021/05/30 00:00:26;;;;;;;5.13;3.47;;;7.60;99.90;;;;;;5044799;28;20182;-67
2021/05/30 00:02:52;;;;;;;3.77;2.87;;;7.60;99.90;;;;;;5044112;28;20575;-70
2021/05/30 00:05:18;;;;;;;4.03;3.23;;;7.60;99.90;;;;;;5045124;28;20178;-70
2021/05/30 00:07:43;;;;;;;4.43;3.23;;;7.70;99.90;;;;;;5044521;28;20186;-67
2021/05/30 00:10:10;;;;;;;5.93;3.73;;;7.70;99.90;;;;;;5044791;28;20190;-69
2021/05/30 00:12:36;;;;;;;3.27;2.70;;;7.70;99.90;;;;;;5058845;28;20584;-71
2021/05/30 00:15:03;;;;;;;4.10;3.13;;;7.70;99.90;;;;;;5043980;28;20228;-68
2021/05/30 00:17:29;;;;;;;3.70;3.23;;;7.70;99.90;;;;;;5044641;28;20636;-71
2021/05/30 00:19:54;;;;;;;4.53;3.33;;;7.70;99.90;;;;;;5044341;28;20230;-68
2021/05/30 00:22:20;;;;;;;4.73;3.60;;;7.60;99.90;;;;;;5044081;28;20174;-68
2021/05/30 00:24:46;;;;;;;5.90;4.10;;;7.60;99.90;;;;;;5044394;28;20190;-69
2021/05/30 00:27:11;;;;;;;4.50;3.27;;;7.60;99.90;;;;;;5059312;28;20638;-68
2021/05/30 00:29:37;;;;;;;4.07;3.23;;;7.50;99.90;;;;;;5043850;28;20284;-70
2021/05/30 00:32:03;;;;;;;4.83;3.63;;;7.50;99.90;;;;;;5042481;28;20932;-70
2021/05/30 00:34:28;;;;;;;3.77;3.03;;;7.50;99.90;;;;;;5044418;28;20190;-70
2021/05/30 00:36:54;;;;;;;3.77;3.27;;;7.50;99.90;;;;;;5044086;28;20213;-71
2021/05/30 00:39:19;;;;;;;5.20;3.30;;;7.50;99.90;;;;;;5044261;28;20201;-67
2021/05/30 00:41:45;;;;;;;3.77;3.17;;;7.50;99.90;;;;;;5056869;28;20194;-70
2021/05/30 00:44:28;;;;;;;4.93;3.33;;;7.50;99.90;;;;;;5044083;28;20204;-68
2021/05/30 00:46:55;;;;;;;5.63;3.07;;;7.40;99.90;;;;;;5042511;28;20350;-67
2021/05/30 00:49:22;;;;;;;4.50;2.87;;;7.40;99.90;;;;;;5043988;28;20209;-70
2021/05/30 00:51:50;;;;;;;4.97;3.90;;;7.30;99.90;;;;;;5043564;28;20190;-68
2021/05/30 00:54:17;;;;;;;4.97;3.70;;;7.20;99.90;;;;;;5043753;28;20193;-69
2021/05/30 00:56:43;;;;;;;4.67;3.20;;;7.20;99.90;;;;;;5044265;28;20255;-67
2021/05/30 00:59:10;;;;;;;5.13;3.90;;;7.20;99.90;;;;;;5043417;28;20202;-71
2021/05/30 01:01:36;;;;;;;4.47;3.10;;;7.20;99.90;;;;;;5045561;28;20201;-70
2021/05/30 01:04:02;;;;;;;3.70;2.57;;;7.10;99.90;;;;;;5066411;28;20181;-69
2021/05/30 01:06:28;;;;;;;3.90;2.93;;;7.10;99.90;;;;;;5051087;28;20182;-67
2021/05/30 01:08:54;;;;;;;4.57;3.07;;;7.10;99.90;;;;;;5050519;28;20288;-68
2021/05/30 01:11:22;;;;;;;4.50;2.70;;;7.10;99.90;;;;;;5049224;28;20268;-69
2021/05/30 01:13:53;;;;;;;3.30;2.53;;;7.10;99.90;;;;;;5050022;28;20186;-68
2021/05/30 01:16:19;;;;;;;4.00;2.80;;;7.10;99.90;;;;;;5049088;28;20258;-67
2021/05/30 01:18:47;;;;;;;4.07;2.97;;;7.00;99.90;;;;;;5050283;28;20217;-71
2021/05/30 01:21:13;;;;;;;3.50;2.50;;;6.90;99.90;;;;;;5050217;28;20249;-70
2021/05/30 01:23:39;;;;;;;3.53;2.83;;;6.90;99.90;;;;;;5049732;28;20182;-71
2021/05/30 01:26:05;;;;;;;4.13;2.70;;;6.90;99.90;;;;;;5050142;28;20593;-71
2021/05/30 01:28:30;;;;;;;4.27;3.13;;;6.90;99.90;;;;;;5065403;28;20205;-70
2021/05/30 01:30:56;;;;;;;4.83;3.47;;;6.90;99.90;;;;;;5049690;28;20186;-66
2021/05/30 01:33:22;;;;;;;4.80;3.40;;;7.00;99.90;;;;;;5050456;28;20194;-69
2021/05/30 01:35:48;;;;;;;2.93;2.60;;;7.10;99.90;;;;;;5050497;28;21170;-71
2021/05/30 01:38:15;;;;;;;4.13;3.13;;;7.10;99.90;;;;;;5050539;28;20206;-68
2021/05/30 01:40:41;;;;;;;5.17;2.87;;;7.10;99.90;;;;;;5049510;28;20622;-67
2021/05/30 01:43:07;;;;;;;3.93;2.83;;;7.10;99.90;;;;;;5050762;28;20187;-68
2021/05/30 01:45:34;;;;;;;4.17;2.97;;;7.10;99.90;;;;;;5065912;28;20656;-69
2021/05/30 01:48:01;;;;;;;3.37;3.03;;;7.10;99.90;;;;;;5049840;28;20288;-71
2021/05/30 01:50:29;;;;;;;8.27;4.00;;;7.00;99.90;;;;;;5050848;28;20244;-72
2021/05/30 01:52:57;;;;;;;4.97;3.20;;;7.00;99.90;;;;;;5049490;28;20594;-69
2021/05/30 01:55:26;;;;;;;3.40;2.37;;;6.90;99.90;;;;;;5049439;28;20577;-68
2021/05/30 01:57:56;;;;;;;3.13;2.57;;;6.90;99.90;;;;;;5050146;28;20210;-69
2021/05/30 02:00:23;;;;;;;3.93;2.60;;;6.90;99.90;;;;;;5049685;28;20641;-69
2021/05/30 02:02:53;;;;;;;3.87;2.90;;;6.90;99.90;;;;;;5049358;28;20186;-67
2021/05/30 02:05:21;;;;;;;2.87;2.57;;;6.90;99.90;;;;;;5050134;28;20593;-70
2021/05/30 02:07:50;;;;;;;4.93;3.87;;;6.90;99.90;;;;;;5049918;28;20214;-70
2021/05/30 02:10:17;;;;;;;4.47;3.07;;;6.80;99.90;;;;;;5050148;28;20190;-69
2021/05/30 02:12:47;;;;;;;3.23;2.63;;;6.90;99.90;;;;;;5048168;28;20572;-71
2021/05/30 02:15:14;;;;;;;4.17;2.27;;;6.80;99.90;;;;;;5046217;28;20202;-68
2021/05/30 02:17:40;;;;;;;5.30;2.77;;;6.80;99.90;;;;;;5046717;28;20193;-70
2021/05/30 02:20:07;;;;;;;4.83;3.23;;;6.70;99.90;;;;;;5047242;28;20840;-67
2021/05/30 02:22:33;;;;;;;4.80;2.40;;;6.70;99.90;;;;;;5046064;28;20186;-71
2021/05/30 02:24:59;;;;;;;3.20;2.47;;;6.70;99.90;;;;;;5046102;28;20174;-66
2021/05/30 02:27:24;;;;;;;5.33;2.50;;;6.60;99.90;;;;;;5045879;28;20236;-70
2021/05/30 02:29:51;;;;;;;4.00;3.20;;;6.60;99.90;;;;;;5046543;28;20199;-70
2021/05/30 02:32:16;;;;;;;3.77;2.97;;;6.60;99.90;;;;;;5046089;28;20214;-68
2021/05/30 02:34:43;;;;;;;3.50;3.00;;;6.60;99.90;;;;;;5046403;28;20210;-70
2021/05/30 02:37:17;;;;;;;3.80;2.53;;;6.60;99.90;;;;;;5046505;28;20230;-72
2021/05/30 02:39:45;;;;;;;3.30;2.73;;;6.60;99.90;;;;;;5045774;28;20681;-69
2021/05/30 02:42:10;;;;;;;4.73;2.60;;;6.60;99.90;;;;;;5046001;28;20189;-68
2021/05/30 02:44:36;;;;;;;4.00;3.33;;;6.60;99.90;;;;;;5046126;28;20194;-67
2021/05/30 02:47:03;;;;;;;5.60;3.57;;;6.60;99.90;;;;;;5046248;28;20213;-69
2021/05/30 02:49:29;;;;;;;3.20;2.43;;;6.40;99.90;;;;;;5045963;28;20672;-71
2021/05/30 02:51:56;;;;;;;3.63;2.80;;;6.50;99.90;;;;;;5045645;28;20568;-68
2021/05/30 02:54:22;;;;;;;3.60;2.90;;;6.40;99.90;;;;;;5044926;28;20593;-70
2021/05/30 02:56:47;;;;;;;3.80;2.97;;;6.50;99.90;;;;;;5045647;28;20763;-68
2021/05/30 02:59:13;;;;;;;3.37;2.70;;;6.50;99.90;;;;;;5046108;28;20206;-69
2021/05/30 03:01:39;;;;;;;2.93;2.63;;;6.50;99.90;;;;;;5045729;28;20187;-69
2021/05/30 03:04:05;;;;;;;4.23;3.03;;;6.50;99.90;;;;;;5045160;28;20622;-67
2021/05/30 03:06:31;;;;;;;4.73;3.03;;;6.50;99.90;;;;;;5046315;28;20194;-71
2021/05/30 03:08:58;;;;;;;3.33;2.47;;;6.30;99.90;;;;;;5045561;28;20217;-70
2021/05/30 03:11:25;;;;;;;4.60;2.83;;;6.20;99.90;;;;;;5045733;28;20800;-72
2021/05/30 03:13:50;;;;;;;2.63;2.27;;;6.30;99.90;;;;;;5045943;28;20186;-68
2021/05/30 03:16:16;;;;;;;3.97;3.10;;;6.40;99.90;;;;;;5061064;28;20669;-67
2021/05/30 03:18:42;;;;;;;4.13;3.03;;;6.50;99.90;;;;;;5045883;28;20199;-69
2021/05/30 03:21:08;;;;;;;4.67;3.57;;;6.50;99.90;;;;;;5045458;28;20261;-70
2021/05/30 03:23:34;;;;;;;3.83;2.93;;;6.40;99.90;;;;;;5045289;28;20175;-67
2021/05/30 03:25:59;;;;;;;2.67;2.30;;;6.50;99.90;;;;;;5045187;28;20182;-68
2021/05/30 03:28:25;;;;;;;3.00;2.70;;;6.50;99.90;;;;;;5045438;28;20221;-70
2021/05/30 03:30:51;;;;;;;2.60;2.30;;;6.50;99.90;;;;;;5044731;28;20193;-68
2021/05/30 03:33:17;;;;;;;2.87;2.40;;;6.60;99.90;;;;;;5045603;28;20190;-68
2021/05/30 03:35:44;;;;;;;3.07;2.73;;;6.50;99.90;;;;;;5043387;28;20206;-71
2021/05/30 03:38:12;;;;;;;4.83;3.53;;;6.60;99.90;;;;;;5043935;28;20197;-70
2021/05/30 03:43:08;;;;;;;3.67;2.37;;;6.60;99.90;;;;;;5044917;28;20182;-70
2021/05/30 03:45:34;;;;;;;3.30;3.00;;;6.60;99.90;;;;;;5044795;28;20665;-68
2021/05/30 03:47:59;;;;;;;3.93;2.63;;;6.60;99.90;;;;;;5044758;28;20293;-70
2021/05/30 03:50:25;;;;;;;3.90;2.53;;;6.70;99.90;;;;;;5044979;28;20591;-67
2021/05/30 03:52:51;;;;;;;4.33;2.90;;;6.70;99.90;;;;;;5044198;28;20393;-68
2021/05/30 03:55:16;;;;;;;3.03;2.43;;;7.00;99.90;;;;;;5044418;28;20205;-67
2021/05/30 03:57:42;;;;;;;3.90;3.10;;;6.90;99.90;;;;;;5044403;28;20240;-69
2021/05/30 04:00:12;;;;;;;3.30;2.30;;;7.00;99.90;;;;;;5044312;28;20202;-69
2021/05/30 04:02:37;;;;;;;3.50;2.43;;;7.00;99.90;;;;;;5044275;28;20167;-67
2021/05/30 04:05:04;;;;;;;3.80;2.83;;;7.00;99.90;;;;;;5044857;28;20178;-69
2021/05/30 04:07:32;;;;;;;3.20;2.47;;;7.20;99.90;;;;;;5044436;28;20189;-67
2021/05/30 04:10:02;;;;;;;3.47;2.70;;;7.30;99.90;;;;;;5044193;28;20205;-69
2021/05/30 04:12:29;;;;;;;4.23;3.03;;;7.50;99.90;;;;;;5043794;28;20258;-70
2021/05/30 04:14:55;;;;;;;7.40;3.23;;;7.70;99.90;;;;;;5043867;28;20324;-70
2021/05/30 04:17:20;;;;;;;3.70;2.97;;;7.80;99.90;;;;;;5044168;28;20726;-67
2021/05/30 04:19:46;;;;;;;3.30;2.57;;;7.80;99.90;;;;;;5044017;28;20542;-68
2021/05/30 04:22:11;;;;;;;3.93;3.10;;;8.00;99.90;;;;;;5043673;28;20610;-69
2021/05/30 04:24:37;;;;;;;3.17;2.53;;;8.20;99.90;;;;;;5043816;28;20189;-69
2021/05/30 04:27:03;;;;;;;3.10;2.57;;;9.00;99.90;;;;;;5043910;28;20235;-68
2021/05/30 04:29:29;;;;;;;5.10;2.33;;;10.10;99.90;;;;;;5043712;28;20213;-68
2021/05/30 04:31:54;;;;;;;3.53;2.72;;;11.10;99.90;;;;;;5058577;28;20190;-69
2021/05/30 04:34:20;;;;;;;2.95;2.55;;;11.70;99.90;;;;;;5042784;28;20181;-70
2021/05/30 04:36:46;;;;;;;3.10;2.63;;;12.10;99.90;;;;;;5041924;28;20543;-67
2021/05/30 04:39:11;;;;;;;3.60;2.53;;;12.20;99.90;;;;;;5059086;28;20233;-67
2021/05/30 04:41:37;;;;;;;5.00;3.17;;;12.50;99.90;;;;;;5041452;28;20178;-71
2021/05/30 04:44:03;;;;;;;3.13;2.60;;;12.60;99.90;;;;;;5043924;28;20551;-67
2021/05/30 04:46:28;;;;;;;3.40;2.80;;;12.40;99.90;;;;;;5044243;28;20201;-70
2021/05/30 04:48:54;;;;;;;4.47;3.05;;;11.90;99.90;;;;;;5042571;28;20611;-70
2021/05/30 04:51:19;;;;;;;3.72;2.92;;;11.90;99.90;;;;;;5043397;28;20186;-70
2021/05/30 04:53:46;;;;;;;3.25;2.63;;;12.30;99.90;;;;;;5043591;28;20189;-71
2021/05/30 04:56:17;;;;;;;4.25;2.45;;;12.90;99.90;;;;;;5043677;28;20209;-67
2021/05/30 04:58:43;;;;;;;4.57;3.30;;;13.90;99.90;;;;;;5043896;28;20273;-70
2021/05/30 05:01:09;;;;;;;2.95;2.33;;;14.00;99.90;;;;;;5042685;28;20688;-68
2021/05/30 05:03:35;;;;;;;3.05;2.55;;;13.80;99.90;;;;;;5044012;28;20185;-69
2021/05/30 05:06:00;;;;;;;3.10;2.65;;;13.70;99.90;;;;;;5044129;28;20205;-72
2021/05/30 05:08:26;;;;;;;2.70;2.10;;;14.10;99.90;;;;;;5043339;28;20240;-67
2021/05/30 05:10:53;;;;;;;3.40;3.10;;;14.90;99.90;;;;;;5042637;28;20204;-70
2021/05/30 05:13:20;;;;;;;3.67;2.78;;;15.40;99.90;;;;;;5043158;28;20228;-67
2021/05/30 05:15:50;;;;;;;2.97;2.33;;;15.90;99.90;;;;;;5043637;28;20285;-68
2021/05/30 05:18:24;;;;;;;3.63;2.40;;;16.40;99.90;;;;;;5043567;28;20202;-70
2021/05/30 05:20:50;;;;;;;2.90;2.45;;;16.80;99.90;;;;;;5042933;28;20178;-71
2021/05/30 05:23:18;;;;;;;3.13;2.60;;;17.00;99.90;;;;;;5043708;28;20187;-71
2021/05/30 05:25:47;;;;;;;3.20;2.58;;;17.30;99.90;;;;;;5043190;28;20210;-70
2021/05/30 05:28:12;;;;;;;3.42;2.83;;;17.60;99.90;;;;;;5043437;28;20202;-71
2021/05/30 05:30:38;;;;;;;4.60;2.58;;;17.60;99.90;;;;;;5043255;28;20532;-72
2021/05/30 05:33:04;;;;;;;4.40;3.22;;;17.90;99.90;;;;;;5043213;28;20186;-68
2021/05/30 05:35:30;;;;;;;4.28;2.80;;;18.00;99.90;;;;;;5042785;28;20202;-69
2021/05/30 05:37:57;;;;;;;3.85;3.05;;;18.20;99.90;;;;;;5043198;28;20654;-69
2021/05/30 05:40:24;;;;;;;3.72;3.20;;;18.60;99.90;;;;;;5042720;28;20905;-68
2021/05/30 05:42:50;;;;;;;4.97;3.33;;;18.60;99.90;;;;;;5042323;28;20531;-67
2021/05/30 05:45:17;;;;;;;5.03;3.30;;;18.70;99.90;;;;;;5043407;28;20221;-69
2021/05/30 05:47:43;;;;;;;7.95;3.55;;;18.70;99.90;;;;;;5043736;28;20281;-68
2021/05/30 05:50:13;;;;;;;5.45;3.97;;;19.00;99.90;;;;;;5046131;28;20578;-67
2021/05/30 05:52:40;;;;;;;5.18;4.28;;;18.90;99.90;;;;;;5046226;28;20291;-69
2021/05/30 05:55:07;;;;;;;6.15;3.92;;;19.20;99.90;;;;;;5047406;28;20190;-67
2021/05/30 05:57:33;;;;;;;3.85;3.45;;;19.40;99.90;;;;;;5047377;28;20267;-69
2021/05/30 05:59:59;;;;;;;5.88;3.60;;;19.60;99.90;;;;;;5047451;28;20224;-67
2021/05/30 06:02:25;;;;;;;5.00;3.50;;;19.50;99.90;;;;;;5046777;28;20202;-69
2021/05/30 06:04:51;;;;;;;7.53;4.05;;;19.40;99.90;;;;;;5047419;28;20661;-69
2021/05/30 06:07:16;;;;;;;4.47;3.97;;;19.70;99.90;;;;;;5047672;28;20194;-66
2021/05/30 06:09:42;;;;;;;5.97;4.05;;;19.90;99.90;;;;;;5046801;28;20268;-68
2021/05/30 06:12:08;;;;;;;4.93;4.10;;;19.80;99.90;;;;;;5039657;28;20192;-68
2021/05/30 06:14:34;;;;;;;5.75;3.97;;;19.80;99.90;;;;;;5044983;28;20585;-66
2021/05/30 06:17:00;;;;;;;5.68;4.13;;;20.10;99.90;;;;;;5046603;28;20202;-69
2021/05/30 06:19:26;;;;;;;7.43;4.75;;;20.20;99.90;;;;;;5046068;28;20206;-70
2021/05/30 06:21:52;;;;;;;6.88;4.07;;;20.30;99.90;;;;;;5045955;28;20645;-69
2021/05/30 06:24:17;;;;;;;5.13;4.10;;;20.40;99.90;;;;;;5044879;28;20185;-67
2021/05/30 06:26:43;;;;;;;7.45;4.13;;;20.30;99.90;;;;;;5045903;28;20201;-69
2021/05/30 06:29:09;;;;;;;5.30;4.13;;;19.90;99.90;;;;;;5044305;28;20206;-65
2021/05/30 06:31:35;;;;;;;5.22;3.90;;;19.40;99.90;;;;;;5045316;28;20244;-67
2021/05/30 06:34:00;;;;;;;6.38;4.43;;;19.70;99.90;;;;;;5046220;28;20522;-72
2021/05/30 06:36:26;;;;;;;5.93;4.40;;;19.40;99.90;;;;;;5045538;28;20224;-71
2021/05/30 06:38:52;;;;;;;5.72;4.13;;;19.10;99.90;;;;;;5045553;28;20199;-69
2021/05/30 06:41:17;;;;;;;6.43;4.60;;;18.30;99.90;;;;;;5044576;28;20641;-70
2021/05/30 06:43:44;;;;;;;7.38;4.30;;;17.70;99.90;;;;;;5045582;28;20170;-71
2021/05/30 06:46:09;;;;;;;8.27;4.55;;;17.40;99.90;;;;;;5046059;28;20647;-69
2021/05/30 06:48:35;;;;;;;6.93;4.57;;;16.90;99.90;;;;;;5045684;28;20226;-70
2021/05/30 06:51:16;;;;;;;5.63;4.65;;;16.80;99.90;;;;;;5045390;28;20243;-68
2021/05/30 06:53:46;;;;;;;8.98;4.88;;;16.40;99.90;;;;;;5046110;28;20174;-71
2021/05/30 06:56:12;;;;;;;7.03;4.63;;;16.20;99.90;;;;;;5045797;28;20308;-68
2021/05/30 06:58:39;;;;;;;9.48;4.22;;;16.20;99.90;;;;;;5044834;28;20999;-69
2021/05/30 07:01:05;;;;;;;7.18;4.07;;;16.20;99.90;;;;;;5044320;28;20187;-69
2021/05/30 07:03:30;;;;;;;7.30;5.10;;;16.30;99.90;;;;;;5043890;28;20212;-67
2021/05/30 07:05:57;;;;;;;5.20;3.97;;;16.30;99.90;;;;;;5045867;28;20621;-69
2021/05/30 07:08:23;;;;;;;6.22;4.63;;;16.30;99.90;;;;;;5045734;28;20206;-68
2021/05/30 07:10:48;;;;;;;8.32;5.20;;;15.80;99.90;;;;;;5044776;28;20178;-67
2021/05/30 07:13:14;;;;;;;8.95;4.75;;;16.10;99.90;;;;;;5045615;28;20178;-69
2021/05/30 07:15:40;;;;;;;8.00;4.63;;;16.20;99.90;;;;;;5045767;28;20767;-66
2021/05/30 07:18:05;;;;;;;6.43;4.63;;;16.20;99.90;;;;;;5045789;28;20260;-66
2021/05/30 07:20:31;;;;;;;5.70;4.82;;;16.20;99.90;;;;;;5045854;28;20187;-70
2021/05/30 07:22:57;;;;;;;6.70;4.90;;;16.40;99.90;;;;;;5045127;28;20687;-68
2021/05/30 07:25:22;;;;;;;7.78;5.00;;;16.40;99.90;;;;;;5045240;28;20182;-66
2021/05/30 07:27:48;;;;;;;7.88;4.88;;;16.50;99.90;;;;;;5045796;28;20186;-68
2021/05/30 07:30:14;;;;;;;7.32;4.75;;;16.60;99.90;;;;;;5046049;28;20257;-67
2021/05/30 07:32:40;;;;;;;6.32;5.28;;;16.60;99.90;;;;;;5044699;28;20190;-69
2021/05/30 07:35:06;;;;;;;5.22;4.55;;;16.60;99.90;;;;;;5045412;28;20190;-67
2021/05/30 07:37:32;;;;;;;6.70;5.00;;;16.80;99.90;;;;;;5045362;28;20247;-67
2021/05/30 07:39:57;;;;;;;6.45;4.78;;;17.00;99.90;;;;;;5044778;28;20233;-69
2021/05/30 07:42:23;;;;;;;6.70;5.30;;;17.20;99.90;;;;;;5044068;28;20170;-70
2021/05/30 07:44:48;;;;;;;4.82;4.20;;;17.20;99.90;;;;;;5045590;28;20178;-68
2021/05/30 07:47:14;;;;;;;6.78;4.57;;;17.30;99.90;;;;;;5044926;28;20190;-68
2021/05/30 07:49:40;;;;;;;5.40;4.03;;;17.30;99.90;;;;;;5045327;28;20210;-69
2021/05/30 07:52:06;;;;;;;6.43;4.60;;;17.30;99.90;;;;;;5044677;28;20182;-67
2021/05/30 07:54:32;;;;;;;7.05;4.07;;;17.40;99.90;;;;;;5059976;28;20273;-68
2021/05/30 07:56:57;;;;;;;7.40;4.70;;;17.50;99.90;;;;;;5043441;28;20320;-69
2021/05/30 07:59:23;;;;;;;4.97;3.72;;;17.40;99.90;;;;;;5044794;28;20198;-70
2021/05/30 08:01:49;;;;;;;5.50;4.45;;;17.30;99.90;;;;;;5042998;28;20187;-69
2021/05/30 08:04:14;;;;;;;4.57;4.03;;;17.40;99.90;;;;;;5044850;28;20239;-69
2021/05/30 08:06:40;;;;;;;6.18;4.15;;;17.30;99.90;;;;;;5044948;28;20189;-68
2021/05/30 08:09:06;;;;;;;8.02;4.18;;;17.40;99.90;;;;;;5044578;28;20210;-69
2021/05/30 08:11:32;;;;;;;6.20;4.22;;;17.40;99.90;;;;;;5042612;28;20189;-67
2021/05/30 08:13:57;;;;;;;6.40;4.35;;;17.50;99.90;;;;;;5044948;28;20223;-67
2021/05/30 08:16:23;;;;;;;5.95;4.22;;;17.70;99.90;;;;;;5043582;28;20633;-68
2021/05/30 08:18:49;;;;;;;6.63;4.35;;;17.70;99.90;;;;;;5044398;28;20229;-70
2021/05/30 08:21:15;;;;;;;6.15;4.38;;;17.80;99.90;;;;;;5044188;28;20178;-69
2021/05/30 08:23:43;;;;;;;6.22;3.70;;;18.00;99.90;;;;;;5044436;28;20232;-68
2021/05/30 08:26:10;;;;;;;5.70;3.92;;;18.10;99.90;;;;;;5044204;28;20182;-68
2021/05/30 08:28:36;;;;;;;5.15;3.97;;;18.20;99.90;;;;;;5044543;28;20672;-66
2021/05/30 08:31:02;;;;;;;6.20;3.88;;;18.20;99.90;;;;;;5059595;28;20625;-67
2021/05/30 08:33:29;;;;;;;5.30;4.10;;;18.10;99.90;;;;;;5059654;28;20278;-71
2021/05/30 08:35:55;;;;;;;4.30;3.03;;;18.30;99.90;;;;;;5044745;28;20680;-70
2021/05/30 08:38:22;;;;;;;6.15;4.18;;;18.10;99.90;;;;;;5044236;28;20197;-67
2021/05/30 08:40:49;;;;;;;5.90;3.58;;;18.30;99.90;;;;;;5043467;28;20225;-70
2021/05/30 08:43:15;;;;;;;4.47;3.08;;;18.30;99.90;;;;;;5042608;28;20235;-70
2021/05/30 08:45:42;;;;;;;3.72;2.67;;;18.00;99.90;;;;;;5044045;28;20184;-70
2021/05/30 08:48:08;;;;;;;4.95;3.38;;;18.10;99.90;;;;;;5059444;28;20247;-67
2021/05/30 08:50:34;;;;;;;5.53;3.08;;;18.50;99.90;;;;;;5044414;28;20186;-69
2021/05/30 08:53:00;;;;;;;5.53;2.65;;;18.50;99.90;;;;;;5043464;28;20182;-68
2021/05/30 08:55:26;;;;;;;5.22;3.22;;;18.40;99.90;;;;;;5044162;28;20409;-69
2021/05/30 08:57:51;;;;;;;5.22;3.60;;;18.50;99.90;;;;;;5043490;28;20672;-69
2021/05/30 09:00:22;;;;;;;5.20;3.30;;;18.40;99.90;;;;;;5044289;28;20243;-68
2021/05/30 09:03:08;;;;;;;3.97;3.20;;;18.50;99.90;;;;;;5043483;28;20182;-68
2021/05/30 09:05:37;;;;;;;6.28;4.07;;;18.40;99.90;;;;;;5058888;28;20190;-71
2021/05/30 09:08:03;;;;;;;3.40;3.10;;;18.50;99.90;;;;;;5043357;28;20190;-71
2021/05/30 09:10:29;;;;;;;4.55;3.08;;;18.70;99.90;;;;;;5043786;28;20350;-66
2021/05/30 09:13:08;;;;;;;3.63;2.80;;;19.00;99.90;;;;;;5043193;28;20186;-70
2021/05/30 09:16:23;;;;;;;4.03;3.25;;;19.20;99.90;;;;;;5043967;28;20545;-71
2021/05/30 09:18:35;;;;;;;4.25;3.03;;;19.30;99.90;;;;;;5029643;28;20213;-71
2021/05/30 09:21:08;;;;;;;4.68;2.55;;;19.60;99.90;;;;;;5043396;28;20625;-70
2021/05/30 09:23:39;;;;;;;4.80;3.00;;;19.90;99.90;;;;;;5046449;28;20212;-70
2021/05/30 09:26:12;;;;;;;5.40;2.78;;;19.70;99.90;;;;;;5048280;28;20174;-70
2021/05/30 09:28:39;;;;;;;3.08;2.53;;;19.50;99.90;;;;;;5046646;28;20214;-71
2021/05/30 09:31:06;;;;;;;2.60;2.28;;;19.90;99.90;;;;;;5062961;28;20286;-70
2021/05/30 09:33:33;;;;;;;5.15;2.60;;;20.00;99.90;;;;;;5047254;28;20186;-71
2021/05/30 09:36:02;;;;;;;4.40;2.95;;;19.90;99.90;;;;;;5047403;28;20263;-70
2021/05/30 09:38:39;;;;;;;3.63;2.97;;;19.60;99.90;;;;;;5047445;28;20657;-70
2021/05/30 09:41:06;;;;;;;3.95;2.85;;;19.10;99.90;;;;;;5047160;28;20182;-70
2021/05/30 09:43:52;;;;;;;3.35;2.60;;;19.40;99.90;;;;;;5046947;28;20269;-66
2021/05/30 09:46:22;;;;;;;2.75;2.15;;;19.60;99.90;;;;;;5047305;28;20552;-69
2021/05/30 09:48:53;;;;;;;4.72;2.90;;;19.90;99.90;;;;;;5046993;28;20561;-68
2021/05/30 09:51:28;;;;;;;3.22;2.53;;;19.40;99.90;;;;;;5061914;28;20625;-69
2021/05/30 09:53:57;;;;;;;3.97;3.08;;;19.40;99.90;;;;;;5047661;28;20177;-70
2021/05/30 09:56:30;;;;;;;3.45;2.40;;;19.90;99.90;;;;;;5062448;28;20197;-69
2021/05/30 09:58:57;;;;;;;3.78;2.45;;;20.20;99.90;;;;;;5046475;28;20552;-69
2021/05/30 10:01:25;;;;;;;2.20;1.95;;;20.50;99.90;;;;;;5046666;28;20197;-71
2021/05/30 10:03:55;;;;;;;2.83;2.33;;;20.40;99.90;;;;;;5062896;28;20499;-71
2021/05/30 10:06:22;;;;;;;1.73;1.52;;;20.10;99.90;;;;;;5047380;28;20244;-72
2021/05/30 10:08:48;;;;;;;2.30;2.10;;;20.00;99.90;;;;;;5046655;28;20198;-71
2021/05/30 10:11:18;;;;;;;2.40;1.80;;;20.20;99.90;;;;;;5046623;28;20232;-69
2021/05/30 10:13:44;;;;;;;2.00;1.80;;;20.70;99.90;;;;;;5046545;28;20188;-71
2021/05/30 10:16:10;;;;;;;4.30;2.33;;;20.60;99.90;;;;;;5046793;28;20220;-68
2021/05/30 10:18:45;;;;;;;3.03;1.70;;;20.00;99.90;;;;;;5046726;28;20201;-71
2021/05/30 10:21:16;;;;;;;3.33;1.58;;;20.10;99.90;;;;;;5046596;28;20177;-68
2021/05/30 10:23:44;;;;;;;2.63;1.90;;;20.50;99.90;;;;;;5047090;28;20182;-67
2021/05/30 10:26:21;;;;;;;2.90;2.38;;;20.60;99.90;;;;;;5045665;28;20228;-67
2021/05/30 10:28:58;;;;;;;3.13;2.03;;;20.10;99.90;;;;;;5044514;28;20206;-70
2021/05/30 10:31:33;;;;;;;2.83;2.10;;;20.00;99.90;;;;;;5046234;28;21143;-70
2021/05/30 10:34:11;;;;;;;4.45;2.47;;;20.20;99.90;;;;;;5045053;28;20658;-72
2021/05/30 10:36:55;;;;;;;2.67;2.30;;;20.30;99.90;;;;;;5046100;28;20264;-68
2021/05/30 10:39:29;;;;;;;2.25;1.70;;;20.40;99.90;;;;;;5045552;28;20186;-70
2021/05/30 10:42:17;;;;;;;3.47;2.08;;;20.70;99.90;;;;;;5043371;28;20205;-71
2021/05/30 10:45:06;;;;;;;2.95;2.20;;;21.00;99.90;;;;;;5045475;28;20209;-70
2021/05/30 10:47:44;;;;;;;2.30;2.08;;;20.90;99.90;;;;;;5045358;28;20202;-69
2021/05/30 10:50:12;;;;;;;2.15;1.67;;;20.70;99.90;;;;;;5046228;28;20718;-67
2021/05/30 10:52:40;;;;;;;3.42;1.83;;;20.90;99.90;;;;;;5045726;28;20273;-71
2021/05/30 10:55:12;;;;;;;2.83;2.15;;;21.30;99.90;;;;;;5046262;28;20537;-68
2021/05/30 10:57:43;;;;;;;2.13;1.92;;;21.60;99.90;;;;;;5045270;28;20259;-68
2021/05/30 11:00:33;;;;;;;2.40;2.17;;;21.00;99.90;;;;;;5046100;28;20202;-67
2021/05/30 11:03:07;;;;;;;3.85;2.03;;;20.70;99.90;;;;;;5038959;28;20194;-72
2021/05/30 11:05:43;;;;;;;2.08;1.58;;;20.90;99.90;;;;;;5046204;28;20526;-72
2021/05/30 11:08:32;;;;;;;2.28;2.08;;;20.40;99.90;;;;;;5045649;28;20194;-70
2021/05/30 11:11:34;;;;;;;1.65;1.55;;;20.60;99.90;;;;;;5045076;28;20185;-69
2021/05/30 11:14:08;;;;;;;2.78;1.77;;;20.90;99.90;;;;;;5045440;28;20663;-66
2021/05/30 11:16:34;;;;;;;1.73;1.63;;;21.40;99.90;;;;;;5045699;28;20236;-68
2021/05/30 11:19:01;;;;;;;2.35;1.77;;;22.00;99.90;;;;;;5045976;28;20540;-70
2021/05/30 11:21:41;;;;;;;4.85;1.73;;;22.40;99.90;;;;;;5044991;28;20182;-66
2021/05/30 11:24:09;;;;;;;2.15;1.95;;;22.40;99.70;;;;;;5045744;28;20625;-71
2021/05/30 11:26:36;;;;;;;2.75;1.80;;;22.10;99.90;;;;;;5045319;28;20680;-67
2021/05/30 11:29:04;;;;;;;2.78;2.10;;;21.30;99.90;;;;;;5044871;28;20744;-71
2021/05/30 11:31:30;;;;;;;3.00;1.75;;;21.70;99.90;;;;;;5045122;28;20189;-70
2021/05/30 11:33:57;;;;;;;2.17;1.73;;;21.90;99.90;;;;;;5045341;28;20174;-72
2021/05/30 11:36:27;;;;;;;3.15;1.70;;;21.70;99.90;;;;;;5044214;28;20197;-67
2021/05/30 11:38:56;;;;;;;3.20;1.90;;;21.80;99.90;;;;;;5060463;28;20202;-71
2021/05/30 11:41:24;;;;;;;2.70;1.63;;;21.30;99.90;;;;;;5044891;28;20209;-67
2021/05/30 11:44:03;;;;;;;1.83;1.65;;;21.10;99.90;;;;;;5044442;28;20174;-72
2021/05/30 11:46:38;;;;;;;5.40;2.05;;;21.20;99.90;;;;;;5044665;28;20233;-68
2021/05/30 11:49:05;;;;;;;2.53;1.77;;;21.10;99.90;;;;;;5044861;28;20208;-69
2021/05/30 11:51:51;;;;;;;2.75;2.15;;;21.50;99.90;;;;;;5044485;28;20269;-69
2021/05/30 11:54:21;;;;;;;2.97;2.10;;;21.60;99.90;;;;;;5045058;28;20637;-65
2021/05/30 11:56:49;;;;;;;1.85;1.50;;;21.80;99.90;;;;;;5044735;28;20694;-66
2021/05/30 11:59:15;;;;;;;2.67;2.03;;;21.60;99.90;;;;;;5044167;28;20279;-66
2021/05/30 12:01:49;;;;;;;1.52;1.42;;;21.90;99.90;;;;;;5044278;28;20630;-68
2021/05/30 12:04:25;;;;;;;3.20;1.60;;;22.20;99.90;;;;;;5044818;28;20178;-70
2021/05/30 12:06:52;;;;;;;2.80;1.30;;;22.70;99.60;;;;;;5045042;28;20273;-69
2021/05/30 12:09:19;;;;;;;2.47;1.90;;;22.40;98.70;;;;;;5059767;28;20699;-69
2021/05/30 12:11:45;;;;;;;2.03;1.67;;;22.30;98.10;;;;;;5043880;28;20182;-66
2021/05/30 12:14:11;;;;;;;10.18;2.20;;;22.60;97.80;;;;;;5044025;28;20260;-68
2021/05/30 12:16:37;;;;;;;2.35;1.83;;;22.80;98.00;;;;;;5043072;28;20683;-68
2021/05/30 12:19:05;;;;;;;1.65;1.55;;;22.80;97.80;;;;;;5044649;28;20202;-65
2021/05/30 12:21:47;;;;;;;2.22;1.50;;;22.40;98.60;;;;;;5044167;28;20701;-69
2021/05/30 12:24:14;;;;;;;2.63;1.65;;;22.10;98.00;;;;;;5044835;28;20190;-68
2021/05/30 12:26:45;;;;;;;1.55;1.35;;;21.90;98.60;;;;;;5044625;28;20196;-69
2021/05/30 12:29:11;;;;;;;2.30;1.77;;;22.10;97.50;;;;;;5059209;28;20264;-69
2021/05/30 12:31:37;;;;;;;2.63;1.80;;;21.70;97.30;;;;;;5043663;28;20269;-69
2021/05/30 12:34:08;;;;;;;1.50;1.20;;;21.50;99.90;;;;;;5060044;28;20249;-70
2021/05/30 12:36:47;;;;;;;1.88;1.45;;;22.00;99.90;;;;;;5044347;28;20271;-68
2021/05/30 12:39:24;;;;;;;1.52;1.42;;;21.90;99.60;;;;;;5044381;28;20233;-66
2021/05/30 12:41:57;;;;;;;1.70;1.52;;;22.10;98.00;;;;;;5042716;28;20564;-67
2021/05/30 12:44:32;;;;;;;2.58;1.70;;;22.30;97.80;;;;;;5043411;28;20257;-67
2021/05/30 12:47:06;;;;;;;1.45;1.35;;;22.40;98.10;;;;;;5042886;28;20285;-68
2021/05/30 12:49:32;;;;;;;2.45;1.83;;;22.50;98.50;;;;;;5043889;28;20259;-70
2021/05/30 12:52:08;;;;;;;2.83;2.00;;;22.70;96.40;;;;;;5043606;28;20190;-70
2021/05/30 12:54:37;;;;;;;1.73;1.63;;;22.40;97.30;;;;;;5044033;28;20193;-65
2021/05/30 12:57:04;;;;;;;2.00;1.60;;;22.30;96.50;;;;;;5042035;28;21132;-66